Terminal Aerodrome Forecast
Issued by NWS Charleston, WV

Current Version | Previous Version | Graphics & Text | Print | Product List | Glossary On
Versions: 1 2 3 4 5 6 7 8 9 10 11 12 13 14 15 16 17 18 19 20 21 22 23 24
000
FTUS41 KRLX 290900 AAA
TAFPKB
TAF AMD
KPKB 290902Z 2909/3006 00000KT 4SM BR FEW002 SCT200
     FM291200 00000KT 6SM BR SCT002 BKN200
     FM291600 00000KT P6SM SCT060
     FM300500 00000KT 6SM BR FEW050=

USA.gov is the U.S. government's official web portal to all federal, state and local government web resources and services.